Bagley, North Carolina
Current Conditions -  °F | °C
As of 7:15 PM on Tuesday 25 Nov 2014 (Local Time) from KGWW Reporting Station
Drizzle Drizzle  
Wind Chill: 52°   Ceiling: 1900
Heat Index: 52°   Visibility: 10mi
Dew Point: 50°   Wind: 3mph
Humidity: 91%   Direction: 30°NNE
Pressure: 30.07"   Gusts: NA
Location:  35.6072°N, 78.1393°W
Report Text: KGWW 260015Z AUTO 03003KT 10SM -DZ BKN019 BKN080 OVC110 11/10 A3007 RMK AO2 T01120098
Loading
Personal Weather Stations






























Interactive Weather Map New forecast layout! Learn more

10-Day Weather Forecast

Advertisements
Track Severe Weather on mobile